Time;durP1;ratioP1;P1;durP2;ratioP2;P2;SDS_P1;SDS_P2;PMS_P1;PMS_P2;Temp;Humidity;BMP_temperature;BMP_pressure;BME280_temperature;BME280_humidity;BME280_pressure;Samples;Min_cycle;Max_cycle;Signal;HPM_P1;HPM_P2
2022/04/27 00:01:36;;;;;;;14.43;7.75;;;;;;;4.11;86.30;94092.13;5061937;28;20055;-48
2022/04/27 00:04:03;;;;;;;13.95;7.68;;;;;;;4.11;86.39;94087.47;5054641;28;20076;-53
2022/04/27 00:06:29;;;;;;;16.02;8.05;;;;;;;4.14;86.90;94086.72;5049934;28;20057;-51
2022/04/27 00:08:56;;;;;;;14.40;7.90;;;;;;;4.25;86.35;94088.81;5085398;28;20092;-48
2022/04/27 00:11:23;;;;;;;15.93;7.88;;;;;;;4.34;86.25;94092.78;5090073;28;20052;-50
2022/04/27 00:13:50;;;;;;;17.17;8.55;;;;;;;4.11;86.97;94086.69;5089383;28;20485;-49
2022/04/27 00:16:16;;;;;;;17.33;8.55;;;;;;;4.12;86.70;94094.44;5089864;28;20401;-49
2022/04/27 00:18:43;;;;;;;16.48;8.50;;;;;;;4.24;86.78;94090.72;5089118;28;20056;-56
2022/04/27 00:21:10;;;;;;;17.33;8.93;;;;;;;4.32;86.29;94083.44;5089777;28;20051;-50
2022/04/27 00:23:37;;;;;;;16.58;8.57;;;;;;;4.29;86.98;94082.25;5089376;28;20050;-46
2022/04/27 00:26:04;;;;;;;17.35;8.35;;;;;;;4.41;85.85;94092.09;5089516;28;20050;-49
2022/04/27 00:28:31;;;;;;;17.38;9.02;;;;;;;4.02;87.58;94078.81;5090042;28;20059;-48
2022/04/27 00:30:57;;;;;;;18.23;9.05;;;;;;;4.03;87.74;94080.41;5074328;28;20049;-52
2022/04/27 00:33:24;;;;;;;16.87;9.00;;;;;;;4.25;87.26;94077.94;5076494;28;20055;-52
2022/04/27 00:35:51;;;;;;;16.42;8.52;;;;;;;4.27;87.65;94073.69;5057913;28;20044;-49
2022/04/27 00:38:18;;;;;;;16.08;8.50;;;;;;;4.43;86.44;94078.09;5074919;28;20045;-50
2022/04/27 00:40:44;;;;;;;15.43;8.35;;;;;;;4.54;86.48;94079.78;5074432;28;20060;-58
2022/04/27 00:43:15;;;;;;;16.95;8.48;;;;;;;4.64;86.18;94088.44;5076396;28;20535;-50
2022/04/27 00:45:41;;;;;;;17.10;8.27;;;;;;;4.67;85.73;94084.94;5075640;28;20040;-46
2022/04/27 00:48:09;;;;;;;18.50;8.40;;;;;;;4.59;85.59;94084.91;5074564;28;20439;-46
2022/04/27 00:50:37;;;;;;;16.40;8.93;;;;;;;4.26;87.61;94084.91;5075481;28;20117;-48
2022/04/27 00:53:04;;;;;;;16.88;8.35;;;;;;;4.31;87.65;94090.81;5074354;28;20048;-49
2022/04/27 00:55:31;;;;;;;18.20;9.13;;;;;;;4.22;87.51;94090.31;5076360;28;20046;-50
2022/04/27 00:57:59;;;;;;;17.90;9.10;;;;;;;4.23;88.17;94096.53;5075388;28;20046;-49
2022/04/27 01:00:26;;;;;;;17.85;8.48;;;;;;;4.37;87.80;94099.41;5075991;28;20055;-48
2022/04/27 01:02:53;;;;;;;17.25;8.95;;;;;;;4.46;87.47;94096.41;5075198;28;20093;-49
2022/04/27 01:05:21;;;;;;;17.65;9.00;;;;;;;4.50;87.09;94099.94;5074874;28;20055;-47
2022/04/27 01:07:48;;;;;;;16.80;9.15;;;;;;;4.54;86.58;94101.53;5083899;28;20511;-48
2022/04/27 01:10:15;;;;;;;18.13;8.87;;;;;;;4.62;87.05;94099.66;5061527;28;20047;-51
2022/04/27 01:12:42;;;;;;;19.85;9.10;;;;;;;4.57;86.64;94108.94;5095682;28;20070;-49
2022/04/27 01:15:09;;;;;;;17.58;9.05;;;;;;;4.49;86.52;94106.53;5095766;28;20062;-50
2022/04/27 01:17:36;;;;;;;17.60;9.35;;;;;;;4.60;87.15;94102.75;5095786;28;20078;-49
2022/04/27 01:20:05;;;;;;;17.02;9.18;;;;;;;4.73;86.59;94106.00;5095594;28;20039;-51
2022/04/27 01:22:32;;;;;;;29.93;14.93;;;;;;;4.86;86.22;94103.00;5096151;28;20116;-49
2022/04/27 01:24:59;;;;;;;43.30;22.15;;;;;;;4.92;86.53;94112.41;5094029;28;20040;-46
2022/04/27 01:27:26;;;;;;;20.75;11.02;;;;;;;4.95;85.74;94111.63;5094806;28;20044;-45
2022/04/27 01:29:52;;;;;;;18.35;9.57;;;;;;;4.77;86.37;94108.78;5072371;28;20041;-50
2022/04/27 01:32:19;;;;;;;17.92;9.40;;;;;;;4.84;86.75;94108.03;5060507;28;20536;-48
2022/04/27 01:34:46;;;;;;;17.67;8.70;;;;;;;4.83;86.63;94107.28;5054091;28;20069;-51
2022/04/27 01:39:58;;;;;;;17.95;9.90;;;;;;;4.72;87.05;94109.88;5050144;28;20110;-53
2022/04/27 01:42:24;;;;;;;19.95;9.77;;;;;;;4.43;88.79;94108.00;5052583;28;20049;-46
2022/04/27 01:44:51;;;;;;;21.88;10.00;;;;;;;4.59;88.19;94116.75;5051793;28;20049;-53
2022/04/27 01:47:18;;;;;;;20.93;10.30;;;;;;;4.43;88.24;94111.50;5052160;28;20049;-55
2022/04/27 01:49:44;;;;;;;21.15;10.18;;;;;;;4.55;88.30;94103.09;5052047;28;20055;-46
2022/04/27 01:54:56;;;;;;;19.90;9.98;;;;;;;4.84;87.16;94105.31;5050257;28;20056;-55
2022/04/27 01:57:23;;;;;;;23.88;10.82;;;;;;;4.85;87.49;94113.13;5050947;28;20045;-49
2022/04/27 01:59:50;;;;;;;20.47;10.20;;;;;;;4.90;87.31;94101.88;5050274;28;20048;-50
2022/04/27 02:02:17;;;;;;;19.70;9.90;;;;;;;4.77;88.12;94106.81;5051772;28;20047;-49
2022/04/27 02:04:44;;;;;;;43.03;21.50;;;;;;;4.95;87.41;94106.19;5050277;28;20037;-46
2022/04/27 02:07:10;;;;;;;21.30;11.35;;;;;;;4.94;87.91;94110.09;5059036;28;20052;-46
2022/04/27 02:09:37;;;;;;;16.75;8.55;;;;;;;5.03;87.30;94109.75;5090405;28;20036;-48
2022/04/27 02:12:05;;;;;;;16.43;8.10;;;;;;;5.12;85.95;94108.28;5090619;28;20039;-50
2022/04/27 02:14:32;;;;;;;14.75;7.47;;;;;;;5.07;86.20;94103.22;5092213;28;20044;-54
2022/04/27 02:16:59;;;;;;;13.98;7.85;;;;;;;5.09;86.09;94106.34;5090149;28;20088;-46
2022/04/27 02:19:26;;;;;;;14.18;7.78;;;;;;;5.19;85.60;94110.28;5091802;28;20036;-47
2022/04/27 02:21:53;;;;;;;16.55;8.82;;;;;;;5.27;85.92;94117.38;5089950;28;20036;-50
2022/04/27 02:24:20;;;;;;;15.53;8.10;;;;;;;5.20;85.67;94112.63;5091965;28;20078;-52
2022/04/27 02:26:46;;;;;;;18.98;9.30;;;;;;;5.19;85.80;94113.81;5091525;28;20044;-48
2022/04/27 02:29:15;;;;;;;10.32;5.30;;;;;;;4.96;84.66;94113.97;5079776;28;20043;-49
2022/04/27 02:31:42;;;;;;;9.48;5.40;;;;;;;5.18;84.16;94114.94;5071178;28;20052;-52
2022/04/27 02:34:10;;;;;;;9.50;5.30;;;;;;;5.24;83.71;94117.34;5071307;28;20040;-55
2022/04/27 02:36:37;;;;;;;9.70;5.13;;;;;;;5.27;84.06;94116.56;5071105;28;20058;-54
2022/04/27 02:39:04;;;;;;;11.98;5.45;;;;;;;5.27;83.23;94116.56;5069675;28;20412;-50
2022/04/27 02:41:30;;;;;;;8.80;5.00;;;;;;;5.28;82.81;94118.16;5071361;28;20490;-47
2022/04/27 02:43:57;;;;;;;8.27;4.25;;;;;;;5.16;82.57;94120.00;5070615;28;20037;-52
2022/04/27 02:46:24;;;;;;;7.30;4.10;;;;;;;5.24;81.79;94125.50;5071171;28;20044;-51
2022/04/27 02:51:56;;;;;;;11.55;5.75;;;;;;;5.25;82.71;94129.78;5007078;28;20050;-48
2022/04/27 02:54:23;;;;;;;12.77;7.20;;;;;;;5.05;83.95;94121.84;5008591;28;20046;-47
2022/04/27 02:56:50;;;;;;;11.60;6.85;;;;;;;5.00;83.42;94131.13;5038075;28;20044;-51
2022/04/27 02:59:17;;;;;;;12.98;7.03;;;;;;;4.95;84.15;94133.38;5070681;28;20037;-51
2022/04/27 03:01:44;;;;;;;12.93;7.00;;;;;;;4.88;83.85;94128.66;5070320;28;20044;-51
2022/04/27 03:04:11;;;;;;;12.15;6.25;;;;;;;4.77;84.37;94128.56;5069466;28;20442;-51
2022/04/27 03:06:37;;;;;;;14.20;7.95;;;;;;;4.67;85.32;94139.31;5052573;28;20060;-46
2022/04/27 03:09:04;;;;;;;14.02;7.20;;;;;;;4.60;86.53;94140.03;5089861;28;20043;-48
2022/04/27 03:11:31;;;;;;;11.85;6.82;;;;;;;4.69;86.49;94140.53;5090024;28;20032;-50
2022/04/27 03:13:58;;;;;;;9.83;5.83;;;;;;;4.77;85.89;94147.59;5090112;28;20058;-48
2022/04/27 03:16:25;;;;;;;14.05;7.25;;;;;;;4.85;86.31;94134.06;5090726;28;20404;-49
2022/04/27 03:18:52;;;;;;;18.40;8.15;;;;;;;4.71;86.71;94134.69;5090369;28;20519;-52
2022/04/27 03:21:19;;;;;;;16.33;8.02;;;;;;;4.66;86.43;94141.25;5090911;28;20386;-52
2022/04/27 03:23:46;;;;;;;15.68;8.35;;;;;;;4.63;86.53;94138.50;5088764;28;20052;-50
2022/04/27 03:26:12;;;;;;;17.50;8.70;;;;;;;4.60;87.21;94145.47;5089056;28;20040;-47
2022/04/27 03:28:39;;;;;;;18.10;9.27;;;;;;;4.64;87.36;94140.84;5081760;28;20052;-49
2022/04/27 03:31:06;;;;;;;19.13;9.73;;;;;;;4.70;87.32;94136.66;5068425;28;20032;-48
2022/04/27 03:33:33;;;;;;;19.52;9.55;;;;;;;4.78;86.63;94143.72;5070359;28;20044;-51
2022/04/27 03:35:59;;;;;;;19.23;10.02;;;;;;;4.85;86.82;94143.03;5066791;28;20050;-49
2022/04/27 03:38:26;;;;;;;21.10;10.10;;;;;;;4.91;86.22;94138.00;5050152;28;20041;-47
2022/04/27 03:40:53;;;;;;;18.30;9.25;;;;;;;4.92;86.66;94142.31;5068458;28;20049;-50
2022/04/27 03:43:20;;;;;;;17.63;8.80;;;;;;;4.82;86.66;94138.31;5069910;28;20039;-54
2022/04/27 03:45:46;;;;;;;16.80;8.48;;;;;;;4.89;86.55;94141.13;5068268;28;20050;-51
2022/04/27 03:48:13;;;;;;;15.52;8.13;;;;;;;4.96;86.16;94143.91;5069969;28;20049;-52
2022/04/27 03:50:40;;;;;;;14.43;7.30;;;;;;;4.99;85.33;94145.88;5069667;28;20037;-52
2022/04/27 03:53:08;;;;;;;15.90;7.80;;;;;;;5.05;85.45;94143.63;5069715;28;20055;-50
2022/04/27 03:55:35;;;;;;;22.60;9.82;;;;;;;5.07;85.03;94157.63;5068514;28;20052;-49
2022/04/27 03:58:05;;;;;;;25.75;12.10;;;;;;;5.02;85.67;94157.94;5077184;28;20491;-51
2022/04/27 04:00:33;;;;;;;20.85;10.57;;;;;;;5.02;85.41;94154.44;5069859;28;20048;-51
2022/04/27 04:03:04;;;;;;;18.63;9.13;;;;;;;5.05;85.82;94159.94;5067501;28;20045;-51
2022/04/27 04:05:31;;;;;;;13.70;7.47;;;;;;;5.00;85.73;94161.03;5069975;28;20045;-49
2022/04/27 04:07:58;;;;;;;12.25;6.50;;;;;;;5.04;85.85;94163.03;5068837;28;20048;-52
2022/04/27 04:10:24;;;;;;;11.60;6.50;;;;;;;5.08;85.68;94170.06;5070016;28;20049;-54
2022/04/27 04:12:51;;;;;;;17.08;8.38;;;;;;;5.14;85.11;94165.06;5069208;28;20207;-51
2022/04/27 04:15:18;;;;;;;19.07;9.53;;;;;;;4.91;86.00;94166.00;5069573;28;20047;-49
2022/04/27 04:17:45;;;;;;;20.48;10.73;;;;;;;4.67;88.07;94167.31;5069271;28;20045;-51
2022/04/27 04:20:13;;;;;;;22.77;11.30;;;;;;;4.73;87.92;94179.41;5069339;28;20033;-50
2022/04/27 04:22:41;;;;;;;23.23;10.70;;;;;;;4.80;88.57;94178.69;5068838;28;20071;-50
2022/04/27 04:30:41;;;;;;;19.30;10.40;;;;;;;4.35;90.39;94173.13;5069009;28;20048;-48
2022/04/27 04:33:07;;;;;;;17.30;9.18;;;;;;;4.35;90.26;94173.13;5068018;28;20053;-47
2022/04/27 04:35:35;;;;;;;16.52;8.63;;;;;;;4.34;90.85;94170.78;5069718;28;20644;-49
2022/04/27 04:38:06;;;;;;;19.02;8.80;;;;;;;4.52;90.15;94179.94;5058466;28;22172;-49
2022/04/27 04:40:33;;;;;;;17.73;8.47;;;;;;;4.73;89.26;94184.84;5049724;28;20532;-52
2022/04/27 04:43:01;;;;;;;17.05;8.73;;;;;;;4.83;88.86;94183.41;5048358;28;20055;-50
2022/04/27 04:45:28;;;;;;;17.00;8.50;;;;;;;4.80;87.88;94186.84;5049176;28;20216;-50
2022/04/27 04:47:54;;;;;;;14.88;8.20;;;;;;;4.92;88.24;94192.03;5048823;28;20381;-47
2022/04/27 04:50:21;;;;;;;16.92;8.30;;;;;;;5.11;87.04;94190.28;5049054;28;20043;-48
2022/04/27 04:52:48;;;;;;;14.87;8.40;;;;;;;5.19;86.43;94198.16;5048483;28;20056;-53
2022/04/27 04:55:16;;;;;;;15.95;8.40;;;;;;;5.31;86.13;94199.03;5048794;28;20041;-52
2022/04/27 04:57:43;;;;;;;14.43;8.02;;;;;;;5.40;85.82;94203.00;5048187;28;20041;-50
2022/04/27 05:00:10;;;;;;;15.10;7.50;;;;;;;5.42;85.05;94197.19;5048196;28;20045;-50
2022/04/27 05:02:37;;;;;;;15.73;8.20;;;;;;;5.40;84.80;94199.50;5050381;28;20076;-55
2022/04/27 05:05:05;;;;;;;14.83;8.00;;;;;;;5.49;84.76;94197.22;5048226;28;20041;-47
2022/04/27 05:07:33;;;;;;;15.63;7.80;;;;;;;5.58;84.30;94208.59;5050055;28;20045;-48
2022/04/27 05:10:00;;;;;;;17.65;10.15;;;;;;;5.58;84.13;94207.81;5047251;28;20041;-56
2022/04/27 05:12:27;;;;;;;20.98;12.98;;;;;;;5.70;84.53;94201.31;5048510;28;20045;-53
2022/04/27 05:14:54;;;;;;;22.08;13.77;;;;;;;5.66;84.46;94209.44;5050272;28;20102;-51
2022/04/27 05:17:22;;;;;;;24.47;14.73;;;;;;;5.92;83.37;94208.47;5067196;28;20045;-50
2022/04/27 05:19:49;;;;;;;19.83;11.38;;;;;;;5.92;83.11;94208.47;5054439;28;20064;-51
2022/04/27 05:22:16;;;;;;;16.20;10.18;;;;;;;6.00;83.17;94220.25;5072396;28;20056;-52
2022/04/27 05:24:42;;;;;;;15.13;8.52;;;;;;;6.23;82.57;94217.25;5070788;28;20051;-47
2022/04/27 05:27:09;;;;;;;16.77;8.57;;;;;;;6.54;80.87;94221.34;5071119;28;20048;-48
2022/04/27 05:32:21;;;;;;;15.75;8.80;;;;;;;7.52;78.10;94206.81;5070638;28;20044;-50
2022/04/27 05:34:48;;;;;;;13.98;7.82;;;;;;;7.87;75.41;94207.19;5071724;28;20059;-50
2022/04/27 05:37:15;;;;;;;15.45;8.05;;;;;;;7.92;74.11;94207.59;5072194;28;20153;-49
2022/04/27 05:39:41;;;;;;;14.55;8.30;;;;;;;7.40;75.66;94213.44;5053972;28;20040;-47
2022/04/27 05:42:08;;;;;;;17.50;8.67;;;;;;;6.52;79.25;94220.13;5071991;28;20047;-50
2022/04/27 05:44:35;;;;;;;15.63;8.35;;;;;;;6.03;81.96;94214.00;5072466;28;20157;-53
2022/04/27 05:47:04;;;;;;;15.88;8.85;;;;;;;6.22;81.97;94217.63;5069794;28;20335;-54
2022/04/27 05:49:31;;;;;;;18.48;9.50;;;;;;;5.86;83.49;94215.44;5072234;28;20553;-47
2022/04/27 05:51:57;;;;;;;18.33;9.63;;;;;;;5.43;85.58;94219.72;5071913;28;20105;-50
2022/04/27 05:54:24;;;;;;;18.63;10.07;;;;;;;5.32;87.17;94225.88;5072060;28;20473;-47
2022/04/27 05:56:51;;;;;;;19.27;10.30;;;;;;;5.27;86.86;94233.56;5054221;28;20485;-50
2022/04/27 05:59:18;;;;;;;18.60;10.48;;;;;;;5.39;87.32;94234.09;5071771;28;20044;-53
2022/04/27 06:01:45;;;;;;;18.73;9.48;;;;;;;5.48;86.16;94241.97;5071502;28;20041;-49
2022/04/27 06:04:17;;;;;;;18.77;10.77;;;;;;;5.70;85.46;94239.44;5072260;28;20044;-49
2022/04/27 06:06:44;;;;;;;17.73;9.20;;;;;;;5.92;84.71;94251.28;5071786;28;20065;-53
2022/04/27 06:09:13;;;;;;;16.42;9.30;;;;;;;6.68;81.73;94253.34;5071741;28;20105;-47
2022/04/27 06:11:40;;;;;;;14.98;8.85;;;;;;;7.34;76.84;94244.22;5071554;28;20041;-51
2022/04/27 06:14:07;;;;;;;23.75;9.60;;;;;;;8.30;74.08;94253.66;5070387;28;20043;-51
2022/04/27 06:16:34;;;;;;;14.07;8.98;;;;;;;9.37;68.66;94249.81;5071686;28;20059;-49
2022/04/27 06:19:02;;;;;;;12.83;8.17;;;;;;;9.16;67.32;94248.75;5068815;28;20703;-50
2022/04/27 06:21:33;;;;;;;12.80;8.23;;;;;;;8.59;69.45;94248.94;5061659;28;20041;-48
2022/04/27 06:24:00;;;;;;;14.20;9.65;;;;;;;10.74;64.04;94249.56;5051459;28;20036;-50
2022/04/27 06:26:27;;;;;;;13.65;9.13;;;;;;;11.00;61.65;94251.59;5051097;28;20045;-52
2022/04/27 06:28:54;;;;;;;12.40;8.80;;;;;;;11.58;58.79;94248.91;5058978;28;20052;-49
2022/04/27 06:31:20;;;;;;;13.27;8.80;;;;;;;11.57;59.78;94244.63;5071489;28;20045;-48
2022/04/27 06:33:47;;;;;;;12.93;8.40;;;;;;;10.30;62.49;94249.19;5071120;28;20044;-49
2022/04/27 06:36:14;;;;;;;12.80;8.45;;;;;;;10.33;64.49;94255.84;5071716;28;20047;-48
2022/04/27 06:38:41;;;;;;;12.75;8.60;;;;;;;10.24;62.79;94261.78;5070977;28;20059;-51
2022/04/27 06:41:13;;;;;;;12.15;8.30;;;;;;;10.13;64.02;94258.31;5070966;28;20043;-54
2022/04/27 06:43:40;;;;;;;12.70;8.07;;;;;;;10.19;64.37;94260.22;5070847;28;20041;-51
2022/04/27 06:46:07;;;;;;;12.95;8.73;;;;;;;9.55;64.85;94255.19;5069940;28;20505;-51
2022/04/27 06:48:34;;;;;;;12.30;8.07;;;;;;;9.63;66.57;94256.72;5071112;28;20048;-55
2022/04/27 06:51:00;;;;;;;11.63;7.90;;;;;;;9.45;65.06;94258.78;5070277;28;20040;-50
2022/04/27 06:53:27;;;;;;;13.10;7.97;;;;;;;9.09;68.12;94265.19;5070887;28;20067;-52
2022/04/27 06:55:58;;;;;;;12.37;8.00;;;;;;;8.62;68.96;94269.25;5070581;28;20460;-50
2022/04/27 06:58:25;;;;;;;13.75;8.05;;;;;;;8.67;69.73;94269.66;5071139;28;20040;-49
2022/04/27 07:00:52;;;;;;;13.15;7.90;;;;;;;9.65;66.04;94264.53;5069256;28;20049;-53
2022/04/27 07:03:19;;;;;;;12.05;7.47;;;;;;;9.69;65.22;94268.81;5070592;28;20048;-52
2022/04/27 07:05:46;;;;;;;11.68;7.38;;;;;;;9.64;64.76;94268.44;5070607;28;20047;-54
2022/04/27 07:08:13;;;;;;;12.63;6.83;;;;;;;10.25;63.79;94279.00;5070736;28;20056;-49
2022/04/27 07:10:40;;;;;;;11.07;6.80;;;;;;;10.29;62.85;94269.56;5069160;28;20397;-47
2022/04/27 07:13:07;;;;;;;10.88;6.80;;;;;;;10.19;63.34;94275.91;5070919;28;20048;-54
2022/04/27 07:15:34;;;;;;;11.40;6.50;;;;;;;10.39;62.03;94274.19;5071011;28;20054;-49
2022/04/27 07:18:01;;;;;;;11.60;7.38;;;;;;;9.41;64.66;94283.44;5068793;28;20481;-53
2022/04/27 07:20:28;;;;;;;10.77;6.97;;;;;;;9.37;65.82;94271.72;5056546;28;20051;-51
2022/04/27 07:22:54;;;;;;;12.00;7.43;;;;;;;9.91;64.52;94282.38;5069992;28;20041;-50
2022/04/27 07:25:21;;;;;;;11.98;6.85;;;;;;;10.02;64.09;94288.56;5070215;28;20047;-51
2022/04/27 07:27:48;;;;;;;11.85;6.95;;;;;;;9.80;64.40;94287.94;5069743;28;20040;-50
2022/04/27 07:30:15;;;;;;;11.43;6.75;;;;;;;9.50;65.31;94292.03;5068936;28;20044;-49
2022/04/27 07:32:42;;;;;;;10.00;6.13;;;;;;;9.52;64.72;94295.13;5069962;28;20118;-52
2022/04/27 07:35:09;;;;;;;9.02;5.90;;;;;;;9.65;64.76;94289.97;5070211;28;20055;-51
2022/04/27 07:37:37;;;;;;;13.18;7.78;;;;;;;9.70;63.67;94289.56;5069381;28;20109;-55
2022/04/27 07:40:08;;;;;;;44.30;16.08;;;;;;;9.54;65.57;94292.00;5070161;28;20048;-55
2022/04/27 07:42:35;;;;;;;20.15;9.15;;;;;;;9.64;64.43;94293.09;5070338;28;20408;-55
2022/04/27 07:45:02;;;;;;;18.93;9.17;;;;;;;9.74;64.36;94297.78;5068015;28;20040;-48
2022/04/27 07:47:41;;;;;;;20.48;9.80;;;;;;;9.83;64.84;94305.53;5069757;28;20044;-57
2022/04/27 07:50:10;;;;;;;19.92;10.27;;;;;;;9.46;64.17;94307.69;5069271;28;20492;-59
2022/04/27 07:52:37;;;;;;;10.75;5.82;;;;;;;9.58;63.42;94311.94;5069660;28;20050;-51
2022/04/27 07:55:05;;;;;;;12.15;6.28;;;;;;;9.36;63.69;94305.78;5069787;28;20051;-49
2022/04/27 07:57:32;;;;;;;11.33;5.67;;;;;;;9.73;62.72;94309.91;5068676;28;20054;-50
2022/04/27 08:00:00;;;;;;;13.35;5.50;;;;;;;10.16;61.46;94313.16;5069563;28;20051;-47
2022/04/27 08:02:27;;;;;;;9.25;4.50;;;;;;;10.36;59.62;94316.16;5069821;28;20051;-48
2022/04/27 08:04:54;;;;;;;6.97;4.32;;;;;;;9.79;61.59;94331.00;5069595;28;20044;-51
2022/04/27 08:07:21;;;;;;;8.45;4.30;;;;;;;9.89;61.50;94323.13;5069781;28;20037;-52
2022/04/27 08:09:48;;;;;;;8.53;4.37;;;;;;;10.39;60.21;94320.81;5068119;28;20055;-53
2022/04/27 08:12:15;;;;;;;8.05;5.35;;;;;;;10.49;59.55;94326.66;5069456;28;20054;-52
2022/04/27 08:14:41;;;;;;;5.47;3.22;;;;;;;9.47;60.09;94331.16;5069414;28;20046;-48
2022/04/27 08:17:08;;;;;;;5.00;3.00;;;;;;;10.32;58.11;94323.66;5068728;28;20043;-49
2022/04/27 08:19:35;;;;;;;4.70;3.00;;;;;;;10.52;56.93;94331.31;5069586;28;20495;-50
2022/04/27 08:22:02;;;;;;;4.87;2.93;;;;;;;9.31;60.06;94333.56;5088996;28;20757;-47
2022/04/27 08:24:29;;;;;;;4.35;2.65;;;;;;;9.60;60.03;94335.03;5071987;28;20541;-50
2022/04/27 08:26:56;;;;;;;4.40;2.80;;;;;;;9.72;59.64;94346.72;5089563;28;20052;-52
2022/04/27 08:29:23;;;;;;;4.63;2.80;;;;;;;9.50;60.33;94338.59;5101531;28;20105;-47
2022/04/27 08:31:50;;;;;;;5.13;2.85;;;;;;;9.15;60.87;94340.28;5109548;28;20520;-50
2022/04/27 08:34:16;;;;;;;5.87;3.30;;;;;;;8.74;62.57;94338.03;5108577;28;20057;-49
2022/04/27 08:36:43;;;;;;;4.75;2.85;;;;;;;8.37;64.05;94343.88;5108672;28;20043;-47
2022/04/27 08:39:10;;;;;;;6.95;3.20;;;;;;;8.84;62.63;94357.56;5110381;28;20046;-55
2022/04/27 08:41:38;;;;;;;4.55;2.85;;;;;;;8.89;63.08;94351.69;5109867;28;20032;-49
2022/04/27 08:44:07;;;;;;;4.93;3.20;;;;;;;9.69;59.64;94356.50;5110072;28;20142;-47
2022/04/27 08:46:34;;;;;;;4.93;2.97;;;;;;;8.41;63.31;94350.19;5108408;28;20044;-50
2022/04/27 08:49:01;;;;;;;4.65;2.95;;;;;;;8.54;63.05;94356.03;5091144;28;21575;-48
2022/04/27 08:51:30;;;;;;;5.13;3.35;;;;;;;8.52;63.12;94356.41;5093737;28;20055;-47
2022/04/27 08:53:57;;;;;;;5.10;3.10;;;;;;;9.34;60.51;94354.72;5093379;28;20485;-52
2022/04/27 08:56:25;;;;;;;4.72;3.00;;;;;;;10.11;57.98;94348.44;5093064;28;20062;-50
2022/04/27 08:58:51;;;;;;;3.90;2.53;;;;;;;11.23;55.23;94353.78;5091855;28;20043;-50
2022/04/27 09:01:18;;;;;;;5.07;2.90;;;;;;;11.79;52.63;94348.78;5093408;28;20081;-56
2022/04/27 09:03:46;;;;;;;5.10;2.80;;;;;;;11.91;52.11;94355.75;5092793;28;20044;-51
2022/04/27 09:06:15;;;;;;;4.43;2.58;;;;;;;11.68;52.13;94361.91;5093263;28;20044;-56
2022/04/27 09:08:49;;;;;;;5.03;3.00;;;;;;;12.36;50.71;94359.03;5076658;28;20546;-51
2022/04/27 09:11:20;;;;;;;3.60;2.23;;;;;;;10.81;53.87;94358.53;5072782;28;20036;-49
2022/04/27 09:13:55;;;;;;;3.33;2.13;;;;;;;11.23;53.59;94362.81;5072501;28;20409;-49
2022/04/27 09:22:26;;;;;;;22.00;10.82;;;;;;;11.15;53.64;94367.59;5055123;28;21066;-52
2022/04/27 09:24:55;;;;;;;4.40;2.70;;;;;;;11.43;52.71;94368.50;5052421;28;20049;-52
2022/04/27 09:27:23;;;;;;;3.90;2.38;;;;;;;11.45;52.18;94362.56;5052548;28;20039;-52
2022/04/27 09:30:00;;;;;;;3.45;2.20;;;;;;;11.73;48.99;94375.19;5069144;28;20448;-50
2022/04/27 09:32:28;;;;;;;3.60;2.20;;;;;;;11.33;49.31;94377.63;5072608;28;20052;-48
2022/04/27 09:34:56;;;;;;;3.47;2.20;;;;;;;11.22;50.67;94372.25;5072366;28;20052;-48
2022/04/27 09:37:24;;;;;;;6.47;2.70;;;;;;;11.26;50.78;94372.97;5072459;28;20046;-53
2022/04/27 09:40:02;;;;;;;3.70;2.33;;;;;;;11.23;49.08;94373.00;5072117;28;20060;-47
2022/04/27 09:42:30;;;;;;;4.63;2.42;;;;;;;12.93;47.22;94364.84;5072353;28;20067;-53
2022/04/27 09:45:13;;;;;;;3.97;2.20;;;;;;;14.35;41.50;94354.19;5072144;28;20044;-50
2022/04/27 09:48:01;;;;;;;3.60;2.30;;;;;;;14.53;42.42;94362.06;5072128;28;20044;-53
2022/04/27 09:50:50;;;;;;;3.20;2.20;;;;;;;15.03;40.43;94365.59;5072336;28;20036;-51
2022/04/27 09:53:18;;;;;;;3.45;2.40;;;;;;;13.59;43.64;94361.28;5071321;28;21610;-48
2022/04/27 09:55:50;;;;;;;3.67;2.17;;;;;;;14.85;41.00;94360.53;5071540;28;20515;-53
2022/04/27 09:58:19;;;;;;;4.40;2.72;;;;;;;17.92;36.47;94348.91;5071919;28;20071;-53
2022/04/27 10:00:48;;;;;;;4.65;2.13;;;;;;;18.24;34.88;94352.50;5071152;28;20049;-51
2022/04/27 10:03:18;;;;;;;4.93;2.13;;;;;;;16.14;39.18;94354.31;5070383;28;20040;-51
2022/04/27 10:05:46;;;;;;;3.80;2.60;;;;;;;12.89;43.01;94372.38;5071786;28;20051;-47
2022/04/27 10:08:14;;;;;;;4.32;2.40;;;;;;;12.75;44.69;94368.66;5070804;28;20066;-49
2022/04/27 10:10:44;;;;;;;3.78;2.85;;;;;;;14.05;41.46;94364.28;5071615;28;20050;-49
2022/04/27 10:13:15;;;;;;;3.45;2.30;;;;;;;13.66;41.97;94362.34;5072155;28;20051;-51
2022/04/27 10:15:43;;;;;;;3.70;2.40;;;;;;;12.51;46.49;94365.09;5070354;28;20047;-54
2022/04/27 10:18:20;;;;;;;3.97;2.47;;;;;;;11.66;48.15;94367.03;5071771;28;20037;-53
2022/04/27 10:20:49;;;;;;;3.90;2.60;;;;;;;12.76;44.57;94364.72;5071016;28;20055;-49
2022/04/27 10:23:27;;;;;;;5.05;2.33;;;;;;;12.47;46.82;94364.38;5071790;28;20044;-56
2022/04/27 10:26:12;;;;;;;3.55;2.25;;;;;;;12.02;47.74;94378.41;5071310;28;20047;-53
2022/04/27 10:28:50;;;;;;;3.83;2.40;;;;;;;12.48;45.69;94370.69;5070792;28;20033;-51
2022/04/27 10:31:48;;;;;;;4.00;2.42;;;;;;;12.47;46.35;94378.13;5071544;28;20439;-58
2022/04/27 10:34:17;;;;;;;4.25;2.40;;;;;;;11.19;50.51;94378.56;5052349;28;21402;-48
2022/04/27 10:36:47;;;;;;;3.53;2.30;;;;;;;12.53;47.22;94370.19;5070169;28;20033;-49
2022/04/27 10:39:14;;;;;;;3.70;2.30;;;;;;;11.67;49.15;94374.88;5071662;28;20044;-50
2022/04/27 10:42:03;;;;;;;4.17;2.63;;;;;;;11.22;49.98;94383.22;5069310;28;20037;-51
2022/04/27 10:44:48;;;;;;;4.25;2.50;;;;;;;10.83;51.87;94380.88;5071323;28;20052;-52
2022/04/27 10:47:18;;;;;;;5.05;2.80;;;;;;;11.50;50.44;94375.88;5070437;28;21629;-54
2022/04/27 10:49:49;;;;;;;4.47;2.88;;;;;;;11.14;51.70;94381.75;5070418;28;20497;-50
2022/04/27 10:52:16;;;;;;;4.70;2.42;;;;;;;11.23;51.96;94382.06;5071200;28;20427;-52
2022/04/27 10:54:45;;;;;;;4.87;2.60;;;;;;;10.84;53.38;94376.91;5070734;28;20049;-51
2022/04/27 10:57:14;;;;;;;5.88;3.20;;;;;;;11.76;51.02;94375.16;5071135;28;20048;-49
2022/04/27 10:59:59;;;;;;;4.65;2.60;;;;;;;12.67;47.80;94374.69;5070423;28;20048;-50
2022/04/27 11:02:32;;;;;;;5.05;2.80;;;;;;;12.69;48.42;94375.06;5070708;28;20063;-56
2022/04/27 11:05:05;;;;;;;9.57;3.30;;;;;;;13.03;47.69;94376.88;5070388;28;20047;-51
2022/04/27 11:07:40;;;;;;;4.30;2.70;;;;;;;10.76;51.96;94387.19;5070407;28;20044;-55
2022/04/27 11:10:17;;;;;;;4.68;3.13;;;;;;;12.85;48.49;94390.94;5069981;28;21724;-55
2022/04/27 11:12:46;;;;;;;4.28;2.83;;;;;;;12.98;46.57;94392.69;5069291;28;20043;-53
2022/04/27 11:15:24;;;;;;;5.57;2.70;;;;;;;13.53;45.63;94390.56;5070933;28;20412;-54
2022/04/27 11:17:56;;;;;;;4.20;2.80;;;;;;;12.66;47.21;94390.44;5070066;28;20435;-54
2022/04/27 11:20:39;;;;;;;4.43;2.60;;;;;;;13.61;45.22;94393.94;5070198;28;20048;-48
2022/04/27 11:23:08;;;;;;;4.38;2.90;;;;;;;15.35;41.36;94386.91;5069576;28;20622;-53
2022/04/27 11:25:37;;;;;;;4.72;2.97;;;;;;;16.00;39.38;94385.16;5070151;28;20193;-54
2022/04/27 11:28:09;;;;;;;4.63;3.22;;;;;;;15.26;38.26;94389.53;5069747;28;20794;-57
2022/04/27 11:30:35;;;;;;;4.95;3.65;;;;;;;12.48;45.27;94398.22;5070259;28;20044;-54
2022/04/27 11:33:02;;;;;;;4.97;3.30;;;;;;;13.08;44.96;94384.63;5065764;28;20459;-51
2022/04/27 11:35:47;;;;;;;4.45;2.80;;;;;;;12.84;46.33;94381.09;5050233;28;20397;-56
2022/04/27 11:38:18;;;;;;;4.75;3.50;;;;;;;11.35;50.27;94392.50;5056423;28;20047;-49
2022/04/27 11:40:48;;;;;;;5.22;3.30;;;;;;;11.24;51.66;94389.09;5049609;28;20048;-52
2022/04/27 11:43:27;;;;;;;5.60;3.15;;;;;;;11.94;50.63;94393.44;5050338;28;20508;-51
2022/04/27 11:45:55;;;;;;;4.40;2.90;;;;;;;12.55;49.63;94390.59;5049914;28;20049;-54
2022/04/27 11:48:22;;;;;;;5.38;2.70;;;;;;;12.68;49.01;94392.78;5032029;28;20036;-52
2022/04/27 11:50:51;;;;;;;4.70;3.10;;;;;;;12.53;48.43;94394.97;5049583;28;20543;-51
2022/04/27 11:53:18;;;;;;;5.25;2.70;;;;;;;13.95;45.84;94392.91;5050407;28;20378;-51
2022/04/27 11:55:49;;;;;;;5.35;3.25;;;;;;;13.33;44.62;94387.00;5049252;28;20045;-51
2022/04/27 11:58:27;;;;;;;5.33;3.10;;;;;;;13.39;45.16;94385.31;5050171;28;20037;-52
2022/04/27 12:00:56;;;;;;;5.43;3.10;;;;;;;14.05;43.57;94389.13;5049499;28;20045;-52